Terminal Aerodrome Forecast
Issued by NWS

Home | Current Version | Previous Version | Text Only | Print | Product List | Glossary On
Versions: 1 2 3 4 5 6 7 8 9 10 11 12 13 14 15 16 17 18 19 20 21 22 23
576
FTUS46 KSEW 200536
TAFBFI
TAF
KBFI 200536Z 2006/2106 15008KT P6SM VCSH SCT040 BKN060
     FM201000 13004KT P6SM VCSH SCT030 BKN050
     FM201500 02003KT 6SM -RA SCT020 OVC040
     FM202200 32006KT 5SM -RA BR BKN015 OVC025
     FM210200 19006KT 6SM -SHRA SCT020 BKN030=

USA.gov is the U.S. government's official web portal to all federal, state and local government web resources and services.